Grapevine, Texas
Current Conditions -  °F | °C
As of 12:53 AM on Friday 19 Dec 2014 (Local Time) from KDFW Reporting Station
Haze Haze  
Wind Chill: 43°   Ceiling: 700
Heat Index: 46°   Visibility: 5mi
Dew Point: 43°   Wind: 6mph
Humidity: 89%   Direction: 10°N
Pressure: 30.15"   Gusts: NA
Location:  32.94°N, 97.08°W
Report Text: KDFW 190653Z 01005KT 5SM BR OVC007 08/06 A3015 RMK AO2 SLP209 T00780061
Loading
Personal Weather Stations






























Interactive Weather Map New forecast layout! Learn more

10-Day Weather Forecast

Advertisements
Track Severe Weather on mobile